Time;durP1;ratioP1;P1;durP2;ratioP2;P2;SDS_P1;SDS_P2;PMS_P1;PMS_P2;Temp;Humidity;BMP_temperature;BMP_pressure;BME280_temperature;BME280_humidity;BME280_pressure;Samples;Min_cycle;Max_cycle;Signal;HPM_P1;HPM_P2
2022/08/30 00:01:02;;;;;;;2.20;2.00;;;15.30;99.90;;;;;;5094516;28;20069;-34
2022/08/30 00:03:41;;;;;;;3.17;2.85;;;15.30;99.90;;;;;;5093864;28;20028;-34
2022/08/30 00:06:08;;;;;;;5.50;4.20;;;15.30;99.90;;;;;;5095839;28;20028;-31
2022/08/30 00:08:35;;;;;;;7.50;5.30;;;15.30;99.90;;;;;;5078927;28;20035;-34
2022/08/30 00:11:03;;;;;;;12.70;6.05;;;15.20;99.90;;;;;;5073831;28;20040;-34
2022/08/30 00:13:29;;;;;;;7.35;5.40;;;15.10;99.90;;;;;;5099327;28;20063;-35
2022/08/30 00:15:55;;;;;;;8.15;5.93;;;15.10;99.90;;;;;;5082079;28;20024;-34
2022/08/30 00:18:21;;;;;;;8.50;5.72;;;14.90;99.90;;;;;;5081103;28;20035;-31
2022/08/30 00:20:48;;;;;;;7.25;5.10;;;15.00;99.90;;;;;;5099215;28;20045;-34
2022/08/30 00:23:15;;;;;;;7.43;2.65;;;15.00;99.90;;;;;;5097613;28;20020;-34
2022/08/30 00:25:41;;;;;;;2.97;2.67;;;14.70;99.90;;;;;;5100993;28;20448;-39
2022/08/30 00:28:08;;;;;;;3.05;2.85;;;14.40;99.90;;;;;;5097579;28;20020;-34
2022/08/30 00:30:34;;;;;;;3.72;2.88;;;14.40;99.90;;;;;;5092262;28;20063;-31
2022/08/30 00:33:00;;;;;;;3.17;2.88;;;14.60;99.90;;;;;;5079427;28;20039;-35
2022/08/30 00:35:25;;;;;;;4.38;3.42;;;14.60;99.90;;;;;;5075406;28;20016;-32
2022/08/30 00:37:51;;;;;;;4.40;3.97;;;14.60;99.90;;;;;;5101902;28;20107;-34
2022/08/30 00:40:19;;;;;;;5.72;3.70;;;14.60;99.90;;;;;;5097123;28;20109;-33
2022/08/30 00:42:45;;;;;;;5.80;5.20;;;14.60;99.90;;;;;;5098331;28;20019;-32
2022/08/30 00:45:21;;;;;;;4.80;4.15;;;14.60;99.90;;;;;;5098597;28;20025;-32
2022/08/30 00:47:47;;;;;;;7.60;4.68;;;14.50;99.90;;;;;;5095162;28;20024;-31
2022/08/30 00:50:15;;;;;;;7.45;4.10;;;14.50;99.90;;;;;;5099840;28;20032;-33
2022/08/30 00:52:45;;;;;;;4.15;3.15;;;14.30;99.90;;;;;;5081526;28;20032;-34
2022/08/30 00:55:13;;;;;;;4.43;3.13;;;14.00;99.90;;;;;;5097057;28;20040;-32
2022/08/30 00:57:41;;;;;;;3.75;3.38;;;14.10;99.90;;;;;;5095300;28;20100;-31
2022/08/30 01:00:08;;;;;;;5.45;3.70;;;14.10;99.90;;;;;;5093560;28;20084;-34
2022/08/30 01:02:33;;;;;;;5.55;4.15;;;14.30;99.90;;;;;;5081948;28;20039;-33
2022/08/30 01:05:01;;;;;;;6.18;4.13;;;14.40;99.90;;;;;;5080978;28;20036;-33
2022/08/30 01:07:27;;;;;;;4.68;3.95;;;14.50;99.90;;;;;;5082609;28;20020;-34
2022/08/30 01:09:53;;;;;;;4.90;3.80;;;14.60;99.90;;;;;;5081424;28;20034;-35
2022/08/30 01:12:19;;;;;;;4.38;3.33;;;14.60;99.90;;;;;;5082348;28;21530;-33
2022/08/30 01:14:46;;;;;;;3.30;3.00;;;14.60;99.90;;;;;;5086248;28;20084;-35
2022/08/30 01:17:14;;;;;;;1.67;1.58;;;14.70;99.90;;;;;;5084152;28;20480;-33
2022/08/30 01:19:54;;;;;;;1.63;1.52;;;14.60;99.90;;;;;;5082353;28;20508;-34
2022/08/30 01:22:22;;;;;;;4.85;3.13;;;14.60;99.90;;;;;;5084970;28;20032;-34
2022/08/30 01:24:49;;;;;;;;;;;14.60;99.90;;;;;;5086788;28;20441;-32
2022/08/30 01:27:16;;;;;;;2.72;1.85;;;14.60;99.90;;;;;;5086490;28;20403;-33
2022/08/30 01:29:43;;;;;;;2.88;1.90;;;14.60;99.90;;;;;;5072970;28;20475;-32
2022/08/30 01:32:24;;;;;;;6.53;4.07;;;14.60;99.90;;;;;;5085659;28;20044;-33
2022/08/30 01:34:50;;;;;;;5.72;4.47;;;14.40;99.90;;;;;;5077162;28;20778;-33
2022/08/30 01:37:20;;;;;;;7.47;4.47;;;14.10;99.90;;;;;;5084278;28;20401;-32
2022/08/30 01:39:46;;;;;;;5.28;4.50;;;13.90;99.90;;;;;;5077821;28;20422;-32
2022/08/30 01:42:13;;;;;;;6.32;4.53;;;14.00;99.90;;;;;;5085317;28;20027;-32
2022/08/30 01:44:38;;;;;;;4.75;4.25;;;14.10;99.90;;;;;;5080048;28;20035;-34
2022/08/30 01:47:04;;;;;;;4.65;3.97;;;13.80;99.90;;;;;;5082615;28;20016;-32
2022/08/30 01:49:30;;;;;;;4.93;4.43;;;13.60;99.90;;;;;;5081113;28;20031;-33
2022/08/30 01:51:56;;;;;;;4.35;3.70;;;13.70;99.90;;;;;;5065299;28;20032;-32
2022/08/30 01:54:22;;;;;;;3.80;3.15;;;13.80;99.90;;;;;;5079001;28;20384;-34
2022/08/30 01:56:48;;;;;;;2.90;2.50;;;13.90;99.90;;;;;;5084673;28;20020;-34
2022/08/30 01:59:14;;;;;;;3.83;2.90;;;13.90;99.90;;;;;;5080912;28;20044;-33
2022/08/30 02:01:40;;;;;;;4.78;3.95;;;14.00;99.90;;;;;;5076625;28;20032;-33
2022/08/30 02:04:07;;;;;;;4.57;3.53;;;13.70;99.90;;;;;;5081211;28;20305;-32
2022/08/30 02:06:33;;;;;;;4.15;3.30;;;13.70;99.90;;;;;;5076554;28;20057;-32
2022/08/30 02:08:59;;;;;;;2.58;2.35;;;13.80;99.90;;;;;;5084338;28;20043;-35
2022/08/30 02:11:25;;;;;;;5.53;3.65;;;13.60;99.90;;;;;;5085395;28;20259;-32
2022/08/30 02:13:51;;;;;;;4.65;4.00;;;13.60;99.90;;;;;;5084549;28;20494;-36
2022/08/30 02:16:21;;;;;;;4.55;4.07;;;13.50;99.90;;;;;;5081876;28;20024;-34
2022/08/30 02:18:48;;;;;;;5.13;4.13;;;13.60;99.90;;;;;;5084168;28;20026;-33
2022/08/30 02:21:13;;;;;;;4.80;3.92;;;13.60;99.90;;;;;;5079997;28;20710;-32
2022/08/30 02:23:40;;;;;;;4.97;4.30;;;13.70;99.90;;;;;;5085990;28;20040;-33
2022/08/30 02:26:06;;;;;;;6.45;4.82;;;13.80;99.90;;;;;;5080140;28;20027;-33
2022/08/30 02:28:33;;;;;;;5.95;4.60;;;13.80;99.90;;;;;;5083857;28;20072;-33
2022/08/30 02:31:00;;;;;;;7.00;4.47;;;13.80;99.90;;;;;;5084178;28;20067;-34
2022/08/30 02:33:25;;;;;;;5.55;4.40;;;13.80;99.90;;;;;;5082654;28;20031;-32
2022/08/30 02:35:51;;;;;;;4.82;4.10;;;13.70;99.90;;;;;;5085590;28;20032;-33
2022/08/30 02:38:17;;;;;;;5.45;4.55;;;13.50;99.90;;;;;;5064961;28;20024;-33
2022/08/30 02:40:43;;;;;;;3.92;3.30;;;13.50;99.90;;;;;;5085759;28;20103;-32
2022/08/30 02:43:09;;;;;;;4.05;2.63;;;13.50;99.90;;;;;;5083686;28;20027;-32
2022/08/30 02:45:35;;;;;;;4.65;3.47;;;13.60;99.90;;;;;;5084367;28;20032;-33
2022/08/30 02:48:01;;;;;;;5.75;3.53;;;13.60;99.90;;;;;;5078765;28;20032;-34
2022/08/30 02:50:26;;;;;;;5.57;3.78;;;13.60;99.90;;;;;;5076105;28;20031;-33
2022/08/30 02:52:52;;;;;;;4.40;3.28;;;13.60;99.90;;;;;;5083314;28;20524;-33
2022/08/30 02:55:18;;;;;;;4.88;3.80;;;13.60;99.90;;;;;;5076970;28;20035;-33
2022/08/30 02:57:44;;;;;;;4.85;3.83;;;13.60;99.90;;;;;;5063780;28;20028;-35
2022/08/30 03:00:13;;;;;;;5.35;3.95;;;13.40;99.90;;;;;;5077753;28;20062;-33
2022/08/30 03:02:39;;;;;;;4.85;4.15;;;13.30;99.90;;;;;;5079076;28;20038;-34
2022/08/30 03:05:07;;;;;;;6.30;4.53;;;13.20;99.90;;;;;;5080723;28;20039;-32
2022/08/30 03:07:33;;;;;;;6.80;4.13;;;13.10;99.90;;;;;;5080946;28;20016;-32
2022/08/30 03:09:58;;;;;;;7.30;4.70;;;13.10;99.90;;;;;;5085543;28;20498;-33
2022/08/30 03:12:24;;;;;;;5.43;4.20;;;13.10;99.90;;;;;;5080923;28;20024;-33
2022/08/30 03:14:50;;;;;;;5.30;3.78;;;13.20;99.90;;;;;;5085109;28;20028;-32
2022/08/30 03:17:16;;;;;;;6.63;4.43;;;13.10;99.90;;;;;;5075944;28;20129;-37
2022/08/30 03:19:43;;;;;;;6.90;4.68;;;13.10;99.90;;;;;;5083420;28;20148;-32
2022/08/30 03:22:09;;;;;;;6.22;4.28;;;13.00;99.90;;;;;;5081158;28;20028;-33
2022/08/30 03:24:35;;;;;;;4.18;3.78;;;13.00;99.90;;;;;;5065263;28;20523;-33
2022/08/30 03:27:00;;;;;;;4.05;2.80;;;13.10;99.90;;;;;;5081110;28;20028;-33
2022/08/30 03:29:28;;;;;;;3.05;2.55;;;12.70;99.90;;;;;;5076605;28;20492;-33
2022/08/30 03:31:55;;;;;;;4.67;3.00;;;12.50;99.90;;;;;;5074993;28;20063;-35
2022/08/30 03:34:22;;;;;;;5.53;4.05;;;12.40;99.90;;;;;;5079442;28;20115;-33
2022/08/30 03:36:48;;;;;;;4.40;3.67;;;12.40;99.90;;;;;;5080332;28;20023;-36
2022/08/30 03:39:14;;;;;;;5.30;4.13;;;12.50;99.90;;;;;;5069648;28;20119;-33
2022/08/30 03:41:40;;;;;;;5.55;3.95;;;12.50;99.90;;;;;;5079799;28;20103;-33
2022/08/30 03:44:05;;;;;;;5.60;3.90;;;12.60;99.90;;;;;;5046443;28;20041;-33
2022/08/30 03:46:31;;;;;;;4.40;3.85;;;12.70;99.90;;;;;;5076648;28;20515;-37
2022/08/30 03:48:57;;;;;;;6.70;3.80;;;12.80;99.90;;;;;;5080191;28;20028;-32
2022/08/30 03:51:24;;;;;;;5.25;3.72;;;12.80;99.90;;;;;;5083170;28;20035;-37
2022/08/30 03:53:49;;;;;;;5.13;3.50;;;12.90;99.90;;;;;;5069696;28;20382;-33
2022/08/30 03:56:16;;;;;;;3.58;3.17;;;13.00;99.90;;;;;;5062104;28;20601;-32
2022/08/30 03:58:41;;;;;;;3.78;3.38;;;13.10;99.90;;;;;;5083670;28;20025;-36
2022/08/30 04:01:08;;;;;;;5.70;3.60;;;13.00;99.90;;;;;;5066218;28;20168;-32
2022/08/30 04:03:34;;;;;;;2.53;2.33;;;13.00;99.90;;;;;;5067118;28;20031;-32
2022/08/30 04:06:00;;;;;;;2.85;2.30;;;12.90;99.90;;;;;;5088666;28;20020;-32
2022/08/30 04:08:26;;;;;;;2.67;2.47;;;12.90;99.90;;;;;;5083327;28;20499;-33
2022/08/30 04:10:54;;;;;;;5.03;3.05;;;12.90;99.90;;;;;;5084554;28;20038;-34
2022/08/30 04:13:21;;;;;;;2.75;2.40;;;13.00;99.90;;;;;;5088227;28;20028;-32
2022/08/30 04:15:46;;;;;;;4.03;2.63;;;13.00;99.90;;;;;;5084725;28;20036;-35
2022/08/30 04:18:12;;;;;;;5.32;3.50;;;13.10;99.90;;;;;;5068662;28;20673;-32
2022/08/30 04:20:38;;;;;;;2.63;2.42;;;13.10;99.90;;;;;;5083090;28;20113;-34
2022/08/30 04:23:05;;;;;;;3.20;2.90;;;13.20;99.90;;;;;;5081723;28;20112;-33
2022/08/30 04:25:33;;;;;;;2.15;1.95;;;13.10;99.90;;;;;;5069336;28;20078;-33
2022/08/30 04:27:59;;;;;;;2.65;1.45;;;13.10;99.90;;;;;;5085244;28;20028;-32
2022/08/30 04:30:25;;;;;;;1.30;1.20;;;13.10;99.90;;;;;;5080945;28;20118;-35
2022/08/30 04:32:51;;;;;;;2.38;1.70;;;13.10;99.90;;;;;;5079023;28;20027;-35
2022/08/30 04:35:17;;;;;;;2.05;1.80;;;13.10;99.90;;;;;;5084471;28;20036;-37
2022/08/30 04:37:42;;;;;;;2.47;1.65;;;13.10;99.90;;;;;;5084250;28;20119;-32
2022/08/30 04:40:09;;;;;;;3.50;3.00;;;13.10;99.90;;;;;;5081891;28;20328;-33
2022/08/30 04:42:34;;;;;;;3.70;3.00;;;13.00;99.90;;;;;;5084840;28;20362;-32
2022/08/30 04:45:06;;;;;;;2.67;2.40;;;12.80;99.90;;;;;;5084614;28;20474;-35
2022/08/30 04:47:32;;;;;;;3.35;2.17;;;12.70;99.90;;;;;;5078678;28;20055;-32
2022/08/30 04:49:58;;;;;;;5.68;2.85;;;12.80;99.90;;;;;;5085802;28;20428;-35
2022/08/30 04:52:23;;;;;;;1.58;1.48;;;12.80;99.90;;;;;;5085481;28;20029;-32
2022/08/30 04:54:54;;;;;;;2.20;1.60;;;12.40;99.90;;;;;;5085251;28;20039;-34
2022/08/30 04:57:21;;;;;;;1.55;1.45;;;12.40;99.90;;;;;;5084086;28;20028;-32
2022/08/30 04:59:47;;;;;;;9.48;2.20;;;12.20;99.90;;;;;;5085568;28;20034;-33
2022/08/30 05:02:13;;;;;;;3.17;1.90;;;12.30;99.90;;;;;;5072893;28;20028;-34
2022/08/30 05:05:38;;;;;;;6.72;1.85;;;12.40;99.90;;;;;;5085180;28;20109;-33
2022/08/30 05:07:27;;;;;;;1.65;1.55;;;12.40;99.90;;;;;;5081759;28;20447;-32
2022/08/30 05:09:52;;;;;;;2.25;2.05;;;12.50;99.90;;;;;;5081530;28;20089;-35
2022/08/30 05:12:18;;;;;;;2.10;1.80;;;12.60;99.90;;;;;;5082046;28;20028;-33
2022/08/30 05:14:44;;;;;;;3.42;2.85;;;12.70;99.90;;;;;;5077077;28;20444;-32
2022/08/30 05:17:10;;;;;;;4.45;2.90;;;12.80;99.90;;;;;;5084732;28;20111;-35
2022/08/30 05:19:35;;;;;;;5.57;3.70;;;12.90;99.90;;;;;;5085744;28;20064;-32
2022/08/30 05:22:01;;;;;;;5.60;4.22;;;13.00;99.90;;;;;;5084180;28;20027;-35
2022/08/30 05:24:26;;;;;;;6.38;4.10;;;12.90;99.90;;;;;;5080312;28;20098;-33
2022/08/30 05:26:52;;;;;;;4.88;4.28;;;13.00;99.90;;;;;;5084298;28;20034;-34
2022/08/30 05:29:17;;;;;;;5.57;4.22;;;13.10;99.90;;;;;;5079019;28;20027;-32
2022/08/30 05:31:43;;;;;;;4.10;3.53;;;13.20;99.90;;;;;;5077695;28;20036;-33
2022/08/30 05:34:09;;;;;;;5.32;3.80;;;13.30;99.90;;;;;;5086223;28;20388;-33
2022/08/30 05:36:37;;;;;;;3.60;3.30;;;13.40;99.90;;;;;;5083458;28;20036;-32
2022/08/30 05:39:04;;;;;;;4.97;4.00;;;13.40;99.90;;;;;;5079971;28;20412;-32
2022/08/30 05:41:30;;;;;;;5.17;3.83;;;13.20;99.90;;;;;;5083306;28;20039;-35
2022/08/30 05:43:59;;;;;;;5.50;4.20;;;13.10;99.90;;;;;;5082457;28;20274;-33
2022/08/30 05:46:30;;;;;;;7.70;4.45;;;13.10;99.90;;;;;;5082905;28;20073;-33
2022/08/30 05:48:56;;;;;;;6.07;5.28;;;13.20;99.90;;;;;;5082777;28;20035;-33
2022/08/30 05:51:24;;;;;;;8.27;6.03;;;13.30;99.90;;;;;;5084247;28;20543;-35
2022/08/30 05:53:52;;;;;;;10.02;5.78;;;13.40;99.90;;;;;;5080784;28;20484;-35
2022/08/30 05:56:23;;;;;;;9.07;6.85;;;13.50;99.90;;;;;;5079990;28;20055;-34
2022/08/30 05:58:49;;;;;;;10.10;6.47;;;13.60;99.90;;;;;;5082813;28;20025;-33
2022/08/30 06:01:27;;;;;;;9.25;6.93;;;13.70;99.90;;;;;;5077246;28;20039;-33
2022/08/30 06:03:55;;;;;;;9.68;7.03;;;13.90;99.90;;;;;;5081666;28;20035;-34
2022/08/30 06:06:21;;;;;;;10.38;6.95;;;14.00;99.90;;;;;;5080807;28;20032;-34
2022/08/30 06:08:48;;;;;;;12.00;7.07;;;14.30;99.90;;;;;;5085648;28;20024;-34
2022/08/30 06:11:15;;;;;;;9.55;6.45;;;14.40;99.90;;;;;;5073465;28;20020;-32
2022/08/30 06:13:41;;;;;;;12.43;6.88;;;14.50;99.90;;;;;;5086074;28;20028;-32
2022/08/30 06:16:13;;;;;;;9.90;6.93;;;14.60;99.90;;;;;;5085343;28;20042;-33
2022/08/30 06:18:39;;;;;;;12.68;6.95;;;14.80;99.90;;;;;;5084367;28;20118;-32
2022/08/30 06:21:05;;;;;;;13.43;7.63;;;15.00;99.90;;;;;;5085888;28;20139;-32
2022/08/30 06:23:31;;;;;;;9.38;7.45;;;15.20;99.90;;;;;;5085148;28;20032;-33
2022/08/30 06:26:03;;;;;;;10.93;7.28;;;15.30;99.90;;;;;;5084675;28;20296;-32
2022/08/30 06:28:29;;;;;;;12.90;8.35;;;15.50;99.90;;;;;;5087413;28;20024;-33
2022/08/30 06:30:55;;;;;;;11.93;7.22;;;15.60;99.90;;;;;;5078956;28;20074;-33
2022/08/30 06:33:20;;;;;;;10.77;7.05;;;15.80;99.90;;;;;;5079211;28;20032;-33
2022/08/30 06:35:46;;;;;;;13.75;7.68;;;15.90;99.90;;;;;;5083520;28;20118;-33
2022/08/30 06:38:12;;;;;;;11.88;8.10;;;16.10;99.90;;;;;;5086106;28;20028;-34
2022/08/30 06:40:37;;;;;;;11.40;8.27;;;16.30;99.90;;;;;;5061556;28;20428;-33
2022/08/30 06:43:03;;;;;;;10.35;8.05;;;16.40;99.90;;;;;;5080381;28;20035;-30
2022/08/30 06:45:29;;;;;;;13.10;8.77;;;16.50;99.90;;;;;;5079512;28;20031;-32
2022/08/30 06:47:57;;;;;;;13.55;8.85;;;16.60;99.90;;;;;;5084946;28;20020;-31
2022/08/30 06:50:24;;;;;;;10.23;7.72;;;16.60;99.90;;;;;;5086415;28;20039;-31
2022/08/30 06:52:50;;;;;;;12.50;9.27;;;16.60;99.90;;;;;;5084691;28;20137;-32
2022/08/30 06:55:17;;;;;;;13.85;8.65;;;16.60;99.90;;;;;;5084053;28;20024;-32
2022/08/30 06:57:44;;;;;;;13.20;8.70;;;16.70;99.90;;;;;;5081737;28;20107;-31
2022/08/30 07:00:15;;;;;;;11.43;8.82;;;16.80;99.90;;;;;;5078516;28;20501;-34
2022/08/30 07:02:42;;;;;;;13.70;8.75;;;16.90;99.90;;;;;;5062883;28;20486;-30
2022/08/30 07:05:10;;;;;;;13.75;9.00;;;17.20;99.90;;;;;;5068109;28;20045;-32
2022/08/30 07:07:38;;;;;;;14.57;9.13;;;17.40;99.90;;;;;;5058384;28;20102;-30
2022/08/30 07:10:07;;;;;;;12.48;8.35;;;17.60;99.90;;;;;;5038053;28;20025;-30
2022/08/30 07:12:33;;;;;;;13.88;9.20;;;17.70;99.90;;;;;;5064996;28;20119;-33
2022/08/30 07:15:00;;;;;;;14.35;8.90;;;17.90;99.90;;;;;;5083315;28;20387;-32
2022/08/30 07:20:11;;;;;;;13.00;9.02;;;18.20;99.90;;;;;;5086425;28;20103;-31
2022/08/30 07:22:37;;;;;;;13.50;9.13;;;18.40;99.90;;;;;;5064922;28;20027;-32
2022/08/30 07:25:03;;;;;;;15.90;10.48;;;18.60;99.90;;;;;;5073401;28;20042;-32
2022/08/30 07:27:29;;;;;;;12.65;9.23;;;18.60;99.90;;;;;;5088245;28;20111;-31
2022/08/30 07:29:57;;;;;;;16.85;10.45;;;18.60;99.90;;;;;;5070853;28;20016;-31
2022/08/30 07:32:23;;;;;;;14.32;9.60;;;18.70;99.90;;;;;;5089495;28;20098;-33
2022/08/30 07:34:48;;;;;;;15.30;10.63;;;18.70;99.90;;;;;;5092383;28;20059;-30
2022/08/30 07:37:14;;;;;;;16.17;10.43;;;18.80;99.90;;;;;;5091413;28;20024;-33
2022/08/30 07:39:40;;;;;;;15.40;10.60;;;19.00;99.90;;;;;;5072024;28;20028;-31
2022/08/30 07:42:06;;;;;;;13.85;9.32;;;19.20;99.90;;;;;;5091010;28;20028;-31
2022/08/30 07:44:31;;;;;;;15.18;9.57;;;19.40;99.90;;;;;;5091761;28;20338;-30
2022/08/30 07:46:57;;;;;;;13.57;8.90;;;19.70;99.90;;;;;;5090569;28;20051;-32
2022/08/30 07:49:22;;;;;;;12.10;8.73;;;19.90;99.90;;;;;;5086175;28;20076;-30
2022/08/30 07:51:48;;;;;;;13.07;8.40;;;20.10;99.90;;;;;;5084576;28;20020;-33
2022/08/30 07:54:14;;;;;;;12.82;8.90;;;20.30;99.90;;;;;;5086942;28;20020;-31
2022/08/30 07:56:40;;;;;;;14.25;9.35;;;20.50;99.90;;;;;;5085987;28;20536;-34
2022/08/30 07:59:05;;;;;;;10.88;8.35;;;20.70;99.90;;;;;;5085053;28;20153;-31
2022/08/30 08:01:31;;;;;;;12.85;8.52;;;20.60;99.90;;;;;;5065544;28;20071;-31
2022/08/30 08:03:57;;;;;;;10.95;8.00;;;20.60;99.90;;;;;;5084134;28;20467;-32
2022/08/30 08:06:23;;;;;;;13.15;8.40;;;20.60;99.90;;;;;;5090943;28;20336;-31
2022/08/30 08:08:50;;;;;;;10.48;7.55;;;20.80;99.90;;;;;;5092175;28;20032;-32
2022/08/30 08:11:22;;;;;;;12.05;8.32;;;20.80;99.90;;;;;;5093215;28;20335;-31
2022/08/30 08:13:49;;;;;;;11.60;8.73;;;20.90;99.90;;;;;;5071610;28;20036;-32
2022/08/30 08:16:15;;;;;;;12.48;8.20;;;21.00;99.90;;;;;;5091092;28;20626;-30
2022/08/30 08:18:40;;;;;;;11.82;8.98;;;21.00;99.90;;;;;;5086995;28;20082;-33
2022/08/30 08:21:06;;;;;;;10.35;8.10;;;21.10;99.90;;;;;;5087755;28;20051;-30
2022/08/30 08:23:32;;;;;;;14.40;8.70;;;21.20;99.90;;;;;;5079284;28;20120;-30
2022/08/30 08:25:58;;;;;;;13.82;7.93;;;21.20;99.90;;;;;;5087163;28;20023;-31
2022/08/30 08:28:24;;;;;;;11.13;8.45;;;21.40;99.90;;;;;;5089598;28;20028;-30
2022/08/30 08:30:51;;;;;;;10.65;8.02;;;21.50;99.90;;;;;;5052347;28;20039;-31
2022/08/30 08:33:17;;;;;;;12.77;9.43;;;21.50;99.90;;;;;;5086407;28;20304;-31
2022/08/30 08:35:44;;;;;;;13.13;9.48;;;21.60;99.90;;;;;;5087645;28;20028;-33
2022/08/30 08:38:10;;;;;;;13.38;8.52;;;21.90;99.90;;;;;;5085589;28;20125;-31
2022/08/30 08:41:09;;;;;;;14.13;8.65;;;22.00;99.90;;;;;;5087872;28;20320;-31
2022/08/30 08:43:36;;;;;;;11.73;8.65;;;22.10;99.90;;;;;;5083588;28;20601;-30
2022/08/30 08:46:25;;;;;;;11.60;8.23;;;22.30;99.90;;;;;;5084359;28;20024;-31
2022/08/30 08:48:55;;;;;;;15.43;9.77;;;22.30;99.90;;;;;;5073501;28;20055;-30
2022/08/30 08:54:37;;;;;;;13.57;9.07;;;22.40;99.90;;;;;;5086113;28;20039;-32
2022/08/30 08:57:03;;;;;;;14.15;9.68;;;22.50;99.90;;;;;;5085898;28;20503;-31
2022/08/30 08:59:29;;;;;;;14.93;8.88;;;22.70;99.90;;;;;;5067859;28;20028;-30
2022/08/30 09:02:00;;;;;;;12.25;7.82;;;22.90;99.90;;;;;;5084450;28;20147;-31
2022/08/30 09:04:32;;;;;;;8.55;7.10;;;22.90;99.90;;;;;;5087270;28;20024;-32
2022/08/30 09:07:02;;;;;;;14.60;9.60;;;22.90;99.90;;;;;;5069044;28;20545;-31
2022/08/30 09:09:37;;;;;;;9.15;6.88;;;23.00;99.90;;;;;;5087725;28;20036;-33
2022/08/30 09:12:05;;;;;;;7.55;6.57;;;23.10;99.90;;;;;;5083135;28;20373;-29
2022/08/30 09:14:41;;;;;;;6.88;5.68;;;23.10;96.40;;;;;;5085894;28;20024;-31
2022/08/30 09:17:12;;;;;;;7.20;5.60;;;23.10;98.30;;;;;;5085455;28;20129;-32
2022/08/30 09:19:44;;;;;;;6.13;5.47;;;23.30;96.50;;;;;;5086618;28;20108;-31
2022/08/30 09:22:22;;;;;;;6.97;5.95;;;23.60;97.10;;;;;;5082385;28;20165;-32
2022/08/30 09:24:50;;;;;;;6.38;5.32;;;23.50;93.50;;;;;;5085840;28;20369;-31
2022/08/30 09:27:44;;;;;;;6.63;5.00;;;23.60;93.00;;;;;;5086489;28;20035;-31
2022/08/30 09:30:19;;;;;;;8.00;5.10;;;23.60;91.60;;;;;;5079034;28;20044;-32
2022/08/30 09:32:53;;;;;;;8.40;5.47;;;23.70;94.60;;;;;;5085520;28;20186;-31
2022/08/30 09:35:21;;;;;;;5.35;4.78;;;23.90;93.20;;;;;;5088781;28;20024;-33
2022/08/30 09:38:02;;;;;;;;;;;24.10;93.80;;;;;;5066638;28;20026;-36
2022/08/30 09:40:36;;;;;;;9.45;5.22;;;24.30;91.80;;;;;;5088047;28;19953;-30
2022/08/30 09:43:14;;;;;;;6.95;4.97;;;24.30;85.20;;;;;;5065901;28;20524;-34
2022/08/30 09:45:42;;;;;;;6.03;4.63;;;24.40;87.00;;;;;;5086700;28;20028;-33
2022/08/30 09:48:32;;;;;;;5.13;4.47;;;24.70;90.30;;;;;;5083902;28;20436;-32
2022/08/30 09:51:17;;;;;;;5.63;4.85;;;25.10;87.30;;;;;;5086007;28;20020;-31
2022/08/30 09:53:48;;;;;;;5.80;4.57;;;24.90;91.70;;;;;;5079762;28;20031;-33
2022/08/30 09:56:32;;;;;;;7.82;4.25;;;24.70;76.60;;;;;;5085087;28;20540;-31
2022/08/30 09:59:07;;;;;;;5.38;4.32;;;24.60;83.30;;;;;;5070187;28;20035;-32
2022/08/30 10:01:46;;;;;;;5.53;4.40;;;24.60;78.90;;;;;;5066701;28;20123;-31
2022/08/30 10:04:28;;;;;;;7.30;5.22;;;24.60;74.20;;;;;;5081291;28;20059;-31
2022/08/30 10:07:33;;;;;;;6.93;5.72;;;24.70;87.90;;;;;;5086701;28;20450;-37
2022/08/30 10:10:29;;;;;;;6.30;5.10;;;24.70;90.40;;;;;;5082955;28;20063;-32
2022/08/30 10:13:13;;;;;;;5.40;4.90;;;24.60;81.30;;;;;;5085126;28;20328;-31
2022/08/30 10:15:56;;;;;;;6.00;4.65;;;24.60;87.50;;;;;;5085210;28;20420;-33
2022/08/30 10:18:42;;;;;;;4.93;4.47;;;24.60;81.50;;;;;;5084668;28;20595;-32
2022/08/30 10:21:24;;;;;;;5.20;4.70;;;24.70;75.20;;;;;;5084422;28;20100;-33
2022/08/30 10:24:22;;;;;;;5.80;4.20;;;24.70;75.10;;;;;;5085243;28;20020;-31
2022/08/30 10:26:58;;;;;;;5.78;4.35;;;24.70;67.10;;;;;;5079001;28;20040;-33
2022/08/30 10:29:37;;;;;;;4.57;4.15;;;24.70;65.80;;;;;;5083566;28;21015;-33
2022/08/30 10:32:03;;;;;;;5.70;4.88;;;24.80;73.40;;;;;;5080018;28;20039;-31
2022/08/30 10:34:39;;;;;;;5.45;4.45;;;24.90;68.20;;;;;;5085741;28;20023;-31
2022/08/30 10:37:15;;;;;;;8.63;5.00;;;25.00;71.40;;;;;;5086782;28;20030;-32
2022/08/30 10:39:46;;;;;;;6.18;4.85;;;25.10;77.10;;;;;;5082907;28;20062;-35
2022/08/30 10:42:22;;;;;;;5.35;4.82;;;25.20;69.70;;;;;;5084871;28;20051;-31
2022/08/30 10:45:13;;;;;;;6.30;4.50;;;25.30;65.50;;;;;;5083025;28;20081;-31
2022/08/30 10:48:00;;;;;;;6.18;4.28;;;25.30;67.50;;;;;;5072266;28;20043;-31
2022/08/30 10:50:34;;;;;;;4.80;4.30;;;25.60;63.70;;;;;;5084718;28;20023;-31
2022/08/30 10:53:32;;;;;;;7.30;5.10;;;25.50;66.10;;;;;;5082753;28;20543;-32
2022/08/30 10:56:09;;;;;;;6.10;4.63;;;25.50;64.10;;;;;;5082189;28;20039;-32
2022/08/30 10:58:38;;;;;;;6.63;4.68;;;25.60;63.60;;;;;;5081505;28;20036;-33
2022/08/30 11:01:16;;;;;;;5.88;4.90;;;25.60;62.80;;;;;;5085658;28;20028;-32
2022/08/30 11:04:06;;;;;;;5.85;4.53;;;25.60;60.80;;;;;;5085638;28;20455;-32
2022/08/30 11:06:55;;;;;;;5.97;4.70;;;25.50;64.50;;;;;;5084584;28;20226;-31
2022/08/30 11:09:29;;;;;;;5.60;5.10;;;25.70;64.20;;;;;;5086493;28;20283;-32
2022/08/30 11:11:55;;;;;;;5.45;4.57;;;25.80;62.30;;;;;;5083093;28;20563;-31
2022/08/30 11:14:22;;;;;;;5.22;4.13;;;25.70;59.10;;;;;;5085997;28;20020;-31
2022/08/30 11:16:50;;;;;;;4.73;4.23;;;25.60;61.50;;;;;;5083900;28;20032;-33
2022/08/30 11:19:37;;;;;;;5.18;4.60;;;25.60;64.80;;;;;;5083656;28;20040;-33
2022/08/30 11:22:22;;;;;;;5.88;4.88;;;25.50;61.60;;;;;;5079399;28;20415;-32
2022/08/30 11:25:07;;;;;;;6.32;4.55;;;25.40;65.00;;;;;;5063766;28;20096;-33
2022/08/30 11:27:52;;;;;;;5.28;4.50;;;25.40;58.00;;;;;;5083479;28;20089;-33
2022/08/30 11:30:24;;;;;;;5.03;4.03;;;25.40;61.10;;;;;;5080904;28;20024;-33
2022/08/30 11:33:03;;;;;;;4.95;4.43;;;25.50;60.20;;;;;;5083062;28;20081;-32
2022/08/30 11:35:48;;;;;;;6.60;4.30;;;25.50;60.00;;;;;;5085334;28;20024;-31
2022/08/30 11:38:27;;;;;;;5.57;4.22;;;25.60;62.20;;;;;;5065495;28;20082;-34
2022/08/30 11:40:56;;;;;;;4.65;4.13;;;25.60;65.70;;;;;;5084362;28;20040;-34
2022/08/30 11:43:34;;;;;;;6.88;4.15;;;25.50;60.90;;;;;;5080840;28;20029;-31
2022/08/30 11:46:26;;;;;;;6.25;4.43;;;25.60;60.10;;;;;;5082705;28;20020;-37
2022/08/30 11:49:21;;;;;;;4.85;4.35;;;25.60;66.10;;;;;;5075617;28;20123;-31
2022/08/30 11:52:06;;;;;;;4.57;3.97;;;25.60;61.70;;;;;;5063793;28;20052;-36
2022/08/30 11:54:49;;;;;;;5.15;3.67;;;25.70;60.00;;;;;;5076996;28;20500;-31
2022/08/30 11:57:47;;;;;;;4.78;4.25;;;25.70;58.20;;;;;;5084020;28;20032;-34
2022/08/30 12:00:33;;;;;;;4.82;3.95;;;25.70;61.70;;;;;;5065063;28;20600;-31
2022/08/30 12:03:26;;;;;;;4.57;4.03;;;25.60;65.20;;;;;;5080740;28;20622;-31
2022/08/30 12:05:56;;;;;;;4.97;4.07;;;25.70;59.20;;;;;;5077933;28;20038;-31
2022/08/30 12:08:32;;;;;;;6.55;4.07;;;25.40;55.30;;;;;;5083589;28;20495;-32
2022/08/30 12:11:23;;;;;;;4.57;4.10;;;25.40;55.80;;;;;;5088672;28;20480;-32
2022/08/30 12:13:54;;;;;;;5.95;4.22;;;25.50;57.10;;;;;;5085552;28;20040;-32
2022/08/30 12:16:34;;;;;;;4.70;4.18;;;25.40;59.30;;;;;;5087261;28;20119;-31
2022/08/30 12:19:17;;;;;;;4.45;3.75;;;25.40;56.50;;;;;;5088545;28;20123;-31
2022/08/30 12:21:52;;;;;;;4.18;3.70;;;25.50;55.20;;;;;;5046870;28;20040;-32
2022/08/30 12:24:26;;;;;;;4.38;3.83;;;25.50;57.60;;;;;;5046414;28;20029;-31
2022/08/30 12:26:52;;;;;;;5.60;3.90;;;25.60;56.50;;;;;;5044835;28;20470;-32
2022/08/30 12:29:24;;;;;;;5.07;3.97;;;25.50;55.50;;;;;;5046610;28;20029;-31
2022/08/30 12:32:01;;;;;;;5.43;4.60;;;25.50;54.20;;;;;;5036754;28;20041;-33
2022/08/30 12:34:33;;;;;;;;;;;25.40;54.10;;;;;;5048781;28;20029;-31
2022/08/30 12:37:22;;;;;;;3.83;3.45;;;25.40;56.00;;;;;;5045567;28;20386;-35
2022/08/30 12:39:59;;;;;;;4.68;4.05;;;25.40;53.50;;;;;;5039915;28;20032;-32
2022/08/30 12:42:29;;;;;;;4.45;3.63;;;25.30;57.20;;;;;;5046092;28;20029;-32
2022/08/30 12:45:01;;;;;;;4.72;4.00;;;25.40;60.50;;;;;;5047003;28;20025;-32
2022/08/30 12:47:41;;;;;;;5.18;3.90;;;25.40;58.10;;;;;;5046708;28;20029;-33
2022/08/30 12:50:08;;;;;;;4.95;3.35;;;25.40;55.00;;;;;;5046833;28;20037;-32
2022/08/30 12:52:41;;;;;;;4.00;3.53;;;25.40;53.20;;;;;;5046618;28;20087;-33
2022/08/30 12:55:11;;;;;;;4.68;4.05;;;25.40;56.30;;;;;;5046128;28;20521;-31
2022/08/30 12:57:40;;;;;;;5.25;4.13;;;25.40;54.30;;;;;;5045566;28;20021;-34
2022/08/30 13:00:26;;;;;;;4.32;3.80;;;25.40;54.20;;;;;;5047354;28;20807;-33
2022/08/30 13:02:55;;;;;;;7.22;4.03;;;25.30;58.00;;;;;;5041806;28;20478;-36
2022/08/30 13:05:39;;;;;;;5.20;4.15;;;25.40;60.00;;;;;;5046217;28;20260;-32
2022/08/30 13:08:12;;;;;;;5.00;4.20;;;25.50;58.40;;;;;;5045736;28;20102;-32